Time;durP1;ratioP1;P1;durP2;ratioP2;P2;SDS_P1;SDS_P2;PMS_P1;PMS_P2;Temp;Humidity;BMP_temperature;BMP_pressure;BME280_temperature;BME280_humidity;BME280_pressure;Samples;Min_cycle;Max_cycle;Signal;HPM_P1;HPM_P2
2021/09/24 00:01:15;;;;;;;8.45;2.22;;;;;;;13.64;77.03;99220.20;1735074;81;25692;-77
2021/09/24 00:03:42;;;;;;;6.05;1.62;;;;;;;13.56;75.70;99213.83;1728246;82;26081;-77
2021/09/24 00:06:09;;;;;;;7.55;1.77;;;;;;;13.54;76.43;99214.60;1692020;82;27478;-78
2021/09/24 00:08:36;;;;;;;9.30;1.92;;;;;;;13.49;75.98;99220.73;1715573;82;25763;-77
2021/09/24 00:11:03;;;;;;;10.70;1.90;;;;;;;13.42;75.08;99220.03;1734890;82;25838;-77
2021/09/24 00:13:30;;;;;;;12.65;2.83;;;;;;;13.31;74.23;99228.95;1734879;82;25779;-78
2021/09/24 00:15:57;;;;;;;10.25;2.17;;;;;;;13.21;75.66;99220.67;1713238;81;26583;-78
2021/09/24 00:18:24;;;;;;;11.55;2.27;;;;;;;13.12;75.39;99230.16;1695510;82;27534;-78
2021/09/24 00:20:51;;;;;;;12.37;2.02;;;;;;;13.02;73.91;99217.81;1734986;82;26549;-77
2021/09/24 00:23:18;;;;;;;9.43;2.17;;;;;;;12.92;73.70;99233.70;1718800;82;26526;-77
2021/09/24 00:25:45;;;;;;;13.53;2.35;;;;;;;12.81;74.54;99233.20;1664339;82;26392;-77
2021/09/24 00:28:12;;;;;;;12.25;2.30;;;;;;;12.77;74.32;99240.06;1688553;82;25946;-77
2021/09/24 00:30:39;;;;;;;16.30;2.30;;;;;;;12.72;75.15;99242.66;1694686;82;28218;-77
2021/09/24 00:33:06;;;;;;;12.78;2.30;;;;;;;12.68;73.87;99248.20;1712119;82;25779;-78
2021/09/24 00:35:33;;;;;;;18.70;3.58;;;;;;;12.64;74.63;99229.03;1666818;82;25882;-77
2021/09/24 00:38:00;;;;;;;21.60;2.67;;;;;;;12.59;73.82;99246.91;1670429;82;26429;-78
2021/09/24 00:40:31;;;;;;;14.50;2.70;;;;;;;12.55;73.18;99247.08;1734763;82;25809;-77
2021/09/24 00:42:57;;;;;;;16.52;3.20;;;;;;;12.54;74.29;99240.88;1682130;82;28309;-77
2021/09/24 00:45:24;;;;;;;16.75;2.80;;;;;;;12.52;74.14;99245.67;1667860;82;26490;-77
2021/09/24 00:47:51;;;;;;;13.00;2.55;;;;;;;12.51;74.04;99239.20;1685852;82;25962;-77
2021/09/24 00:50:18;;;;;;;17.07;3.37;;;;;;;12.49;73.82;99243.44;1752388;81;25763;-78
2021/09/24 00:52:49;;;;;;;12.55;2.37;;;;;;;12.46;73.56;99239.89;1684333;83;26361;-78
2021/09/24 00:55:16;;;;;;;10.25;1.82;;;;;;;12.44;72.91;99233.94;1683616;83;32617;-77
2021/09/24 00:57:44;;;;;;;14.87;2.90;;;;;;;12.43;72.60;99231.45;1677594;83;25962;-78
2021/09/24 01:00:13;;;;;;;14.43;2.67;;;;;;;12.42;73.56;99238.72;1712243;82;25860;-77
2021/09/24 01:02:40;;;;;;;20.37;2.55;;;;;;;12.42;73.37;99236.55;1730853;82;25898;-77
2021/09/24 01:05:09;;;;;;;13.75;2.72;;;;;;;12.42;73.73;99234.69;1664008;82;25869;-77
2021/09/24 01:07:42;;;;;;;14.78;2.47;;;;;;;12.44;72.72;99234.45;1689555;82;27336;-78
2021/09/24 01:10:13;;;;;;;8.73;2.05;;;;;;;12.46;73.53;99242.58;1734207;82;25769;-77
2021/09/24 01:12:40;;;;;;;20.90;2.70;;;;;;;12.47;73.06;99238.83;1734638;82;25936;-77
2021/09/24 01:15:12;;;;;;;11.80;2.77;;;;;;;12.47;73.44;99239.37;1667062;82;26381;-78
2021/09/24 01:17:39;;;;;;;10.88;2.40;;;;;;;12.48;72.97;99232.94;1682163;82;25863;-77
2021/09/24 01:20:10;;;;;;;10.90;1.77;;;;;;;12.47;73.52;99242.85;1714464;82;28337;-77
2021/09/24 01:22:38;;;;;;;11.15;2.72;;;;;;;12.46;73.95;99235.03;1713493;81;25812;-77
2021/09/24 01:25:09;;;;;;;9.53;2.25;;;;;;;12.46;74.17;99247.95;1679339;81;26699;-77
2021/09/24 01:27:36;;;;;;;;;;;;;;;12.47;74.94;99242.06;1707868;81;25790;-77
2021/09/24 01:30:05;;;;;;;11.53;2.10;;;;;;;12.50;75.53;99257.69;1750957;81;26470;-77
2021/09/24 01:32:33;;;;;;;11.15;2.90;;;;;;;12.49;76.07;99256.07;1701264;81;28145;-77
2021/09/24 01:35:03;;;;;;;11.30;2.12;;;;;;;12.48;76.48;99253.91;1703659;81;26519;-78
2021/09/24 01:37:30;;;;;;;13.68;2.45;;;;;;;12.49;77.05;99255.52;1725102;81;25760;-77
2021/09/24 01:39:57;;;;;;;16.77;2.45;;;;;;;12.50;77.35;99260.38;1750343;81;26527;-77
2021/09/24 01:42:25;;;;;;;17.00;2.60;;;;;;;12.49;77.47;99255.52;1705427;81;25871;-78
2021/09/24 01:44:52;;;;;;;13.65;1.90;;;;;;;12.51;77.47;99259.34;1704645;81;27432;-77
2021/09/24 01:47:19;;;;;;;11.83;1.75;;;;;;;12.53;77.21;99266.64;1726142;80;25503;-77
2021/09/24 01:49:46;;;;;;;11.70;2.50;;;;;;;12.54;76.87;99266.40;1751076;80;25810;-77
2021/09/24 01:52:13;;;;;;;17.15;2.87;;;;;;;12.54;76.88;99258.34;1728464;81;25815;-77
2021/09/24 01:54:40;;;;;;;16.75;2.85;;;;;;;12.55;76.65;99264.54;1701051;81;25847;-77
2021/09/24 01:57:07;;;;;;;13.20;2.67;;;;;;;12.55;76.67;99264.54;1694379;81;27558;-77
2021/09/24 01:59:34;;;;;;;12.10;2.05;;;;;;;12.55;76.74;99265.37;1675201;81;26553;-77
2021/09/24 02:02:01;;;;;;;14.65;2.05;;;;;;;12.54;76.43;99269.09;1702028;81;25645;-77
2021/09/24 02:04:28;;;;;;;11.53;2.50;;;;;;;12.53;76.58;99272.02;1727165;81;25845;-77
2021/09/24 02:06:55;;;;;;;11.12;2.50;;;;;;;12.50;76.19;99269.26;1748508;80;25751;-77
2021/09/24 02:09:23;;;;;;;10.50;2.02;;;;;;;12.51;76.34;99280.83;1676244;81;27536;-77
2021/09/24 02:11:50;;;;;;;18.42;2.85;;;;;;;12.50;75.97;99286.72;1728385;81;26556;-77
2021/09/24 02:14:18;;;;;;;10.70;2.40;;;;;;;12.49;76.21;99282.38;1726736;81;25874;-78
2021/09/24 02:16:45;;;;;;;13.40;2.77;;;;;;;12.49;76.31;99274.88;1750746;81;25696;-78
2021/09/24 02:19:12;;;;;;;15.95;2.58;;;;;;;12.49;76.09;99272.98;1701321;81;25901;-78
2021/09/24 02:21:39;;;;;;;14.68;3.20;;;;;;;12.47;76.62;99268.91;1702072;81;26947;-78
2021/09/24 02:24:06;;;;;;;16.02;2.33;;;;;;;12.43;76.89;99271.73;1721874;82;25812;-78
2021/09/24 02:26:33;;;;;;;18.35;4.33;;;;;;;12.37;76.80;99264.92;1734485;82;25862;-78
2021/09/24 02:29:00;;;;;;;11.50;2.58;;;;;;;12.36;77.40;99275.88;1672585;81;25894;-78
2021/09/24 02:31:27;;;;;;;11.85;2.40;;;;;;;12.32;77.22;99275.52;1684856;82;25848;-78
2021/09/24 02:33:54;;;;;;;11.03;2.47;;;;;;;12.30;77.35;99278.14;1711311;82;27501;-78
2021/09/24 02:36:21;;;;;;;17.17;2.72;;;;;;;12.29;77.97;99281.89;1718290;82;25915;-78
2021/09/24 02:38:49;;;;;;;16.20;3.50;;;;;;;12.24;78.50;99285.77;1689641;82;25970;-78
2021/09/24 02:41:17;;;;;;;20.10;3.65;;;;;;;12.18;78.95;99292.06;1692616;82;25855;-78
2021/09/24 02:43:44;;;;;;;16.23;3.22;;;;;;;12.11;79.17;99310.94;1718790;82;25380;-78
2021/09/24 02:46:11;;;;;;;20.23;3.47;;;;;;;12.06;79.46;99297.92;1712156;82;27621;-78
2021/09/24 02:48:38;;;;;;;16.90;3.00;;;;;;;12.00;79.99;99303.66;1670413;82;25820;-78
2021/09/24 02:51:05;;;;;;;16.32;2.75;;;;;;;11.98;79.98;99318.34;1691538;82;25844;-78
2021/09/24 02:53:32;;;;;;;16.07;2.90;;;;;;;11.96;80.25;99315.89;1709215;82;25891;-78
2021/09/24 02:55:59;;;;;;;17.48;2.87;;;;;;;11.94;80.11;99319.84;1712264;82;26293;-78
2021/09/24 02:58:26;;;;;;;15.20;3.10;;;;;;;11.93;80.26;99323.59;1690586;82;27597;-78
2021/09/24 03:00:53;;;;;;;16.37;3.30;;;;;;;11.94;80.37;99319.33;1717289;82;26180;-78
2021/09/24 03:03:20;;;;;;;12.75;3.08;;;;;;;11.93;80.56;99323.05;1734273;82;25311;-78
2021/09/24 03:05:47;;;;;;;16.30;2.85;;;;;;;11.93;80.66;99332.98;1691486;82;25903;-78
2021/09/24 03:08:15;;;;;;;17.65;3.35;;;;;;;11.93;80.57;99322.25;1718709;82;25816;-78
2021/09/24 03:10:42;;;;;;;20.95;3.75;;;;;;;11.93;80.69;99324.93;1716844;81;27540;-78
2021/09/24 03:13:09;;;;;;;19.05;3.67;;;;;;;11.91;80.57;99324.34;1694270;82;26098;-78
2021/09/24 03:15:36;;;;;;;20.95;3.67;;;;;;;11.91;80.73;99341.78;1690040;82;25797;-78
2021/09/24 03:18:03;;;;;;;14.38;5.05;;;;;;;11.90;80.78;99343.64;1694608;82;25645;-78
2021/09/24 03:20:30;;;;;;;15.03;3.42;;;;;;;11.90;80.88;99350.34;1717773;82;25751;-78
2021/09/24 03:22:57;;;;;;;15.20;2.60;;;;;;;11.92;80.77;99348.26;1734359;82;27586;-78
2021/09/24 03:25:28;;;;;;;17.80;3.20;;;;;;;11.94;80.85;99361.44;1687853;82;25989;-77
2021/09/24 03:27:55;;;;;;;15.30;2.87;;;;;;;11.93;80.96;99355.24;1715733;82;25783;-78
2021/09/24 03:30:24;;;;;;;20.97;3.20;;;;;;;11.92;81.35;99354.97;1679572;82;27124;-78
2021/09/24 03:32:51;;;;;;;19.67;3.08;;;;;;;11.89;81.23;99362.66;1715353;82;25891;-77
2021/09/24 03:35:18;;;;;;;11.65;2.80;;;;;;;11.87;81.39;99362.86;1689087;82;27491;-77
2021/09/24 03:37:45;;;;;;;17.92;3.42;;;;;;;11.86;81.48;99364.44;1687663;82;25774;-78
2021/09/24 03:40:13;;;;;;;12.43;3.27;;;;;;;11.85;81.46;99364.95;1714138;82;25824;-78
2021/09/24 03:42:40;;;;;;;21.02;3.30;;;;;;;11.85;81.37;99358.75;1730542;82;26130;-78
2021/09/24 03:45:09;;;;;;;10.50;3.40;;;;;;;11.87;81.34;99366.88;1689837;82;25343;-78
2021/09/24 03:47:37;;;;;;;13.30;2.75;;;;;;;11.89;81.25;99370.70;1691598;82;27565;-78
2021/09/24 03:50:06;;;;;;;18.98;3.05;;;;;;;11.90;80.91;99373.16;1717117;82;26019;-78
2021/09/24 03:52:33;;;;;;;11.18;3.20;;;;;;;11.92;80.98;99378.29;1734940;82;25556;-78
2021/09/24 03:55:01;;;;;;;16.27;3.20;;;;;;;11.92;80.43;99376.95;1711942;82;25739;-78
2021/09/24 03:57:28;;;;;;;14.55;2.87;;;;;;;11.92;80.64;99384.48;1696912;81;25856;-78
2021/09/24 03:59:55;;;;;;;10.98;2.20;;;;;;;11.92;80.74;99395.22;1713705;81;28092;-78
2021/09/24 04:02:22;;;;;;;10.13;2.50;;;;;;;11.93;80.95;99393.36;1718510;83;25793;-78
2021/09/24 04:04:49;;;;;;;15.08;3.35;;;;;;;11.91;80.99;99402.95;1723236;81;25954;-78
2021/09/24 04:07:18;;;;;;;17.00;2.70;;;;;;;11.90;81.11;99396.48;1677345;83;25647;-78
2021/09/24 04:09:45;;;;;;;17.92;3.30;;;;;;;11.88;81.09;99402.08;1694987;81;26587;-78
2021/09/24 04:12:12;;;;;;;14.13;2.37;;;;;;;11.83;81.08;99409.97;1726258;83;27426;-78
2021/09/24 04:14:39;;;;;;;12.88;2.77;;;;;;;11.79;81.19;99410.12;1673315;83;25795;-78
2021/09/24 04:17:06;;;;;;;17.15;2.55;;;;;;;11.77;81.29;99408.70;1687270;83;25516;-78
2021/09/24 04:19:35;;;;;;;15.15;3.00;;;;;;;11.73;81.32;99411.02;1710431;81;26524;-77
2021/09/24 04:22:03;;;;;;;20.05;3.67;;;;;;;11.72;81.40;99413.93;1709650;83;25859;-78
2021/09/24 04:24:30;;;;;;;13.22;2.62;;;;;;;11.68;81.37;99414.87;1695508;82;27559;-78
2021/09/24 04:26:58;;;;;;;18.45;2.75;;;;;;;11.67;81.51;99419.13;1699217;82;25818;-78
2021/09/24 04:29:25;;;;;;;17.55;3.62;;;;;;;11.67;81.53;99417.79;1722894;81;25876;-77
2021/09/24 04:31:52;;;;;;;18.05;3.47;;;;;;;11.65;81.49;99416.11;1730913;82;26059;-78
2021/09/24 04:34:19;;;;;;;17.82;2.87;;;;;;;11.66;81.60;99415.59;1704206;82;25805;-78
2021/09/24 04:36:46;;;;;;;18.10;4.35;;;;;;;11.65;81.67;99417.99;1685505;83;28239;-78
2021/09/24 04:39:13;;;;;;;16.05;3.00;;;;;;;11.63;81.64;99425.44;1697234;82;25661;-78
2021/09/24 04:41:40;;;;;;;18.92;2.72;;;;;;;11.64;81.76;99416.33;1732482;82;25795;-78
2021/09/24 04:44:07;;;;;;;17.70;3.55;;;;;;;11.64;81.85;99427.89;1693733;82;26053;-78
2021/09/24 04:46:34;;;;;;;16.95;3.40;;;;;;;11.65;81.81;99442.92;1689045;83;26289;-78
2021/09/24 04:49:02;;;;;;;16.17;3.15;;;;;;;11.66;81.85;99438.39;1711184;82;27545;-78
2021/09/24 04:51:29;;;;;;;13.43;3.20;;;;;;;11.68;81.88;99450.27;1744846;82;25767;-78
2021/09/24 04:53:56;;;;;;;16.27;3.15;;;;;;;11.70;81.93;99436.14;1697037;82;25919;-78
2021/09/24 04:56:23;;;;;;;12.95;3.08;;;;;;;11.71;82.03;99454.69;1697922;82;25935;-78
2021/09/24 04:58:50;;;;;;;14.63;2.83;;;;;;;11.74;82.10;99444.03;1698424;81;25844;-78
2021/09/24 05:01:18;;;;;;;13.80;3.08;;;;;;;11.77;82.23;99459.16;1745303;82;27505;-78
2021/09/24 05:03:45;;;;;;;21.90;3.20;;;;;;;11.80;82.25;99465.95;1695186;82;25984;-78
2021/09/24 05:06:12;;;;;;;11.38;2.70;;;;;;;11.83;82.28;99468.17;1698116;82;26632;-78
2021/09/24 05:08:39;;;;;;;16.73;3.42;;;;;;;11.86;82.21;99480.64;1711340;82;26451;-77
2021/09/24 05:11:06;;;;;;;12.98;2.62;;;;;;;11.87;82.29;99477.44;1724052;82;25858;-77
2021/09/24 05:13:33;;;;;;;15.75;4.03;;;;;;;11.91;82.46;99471.92;1699821;82;27533;-78
2021/09/24 05:16:00;;;;;;;17.50;3.22;;;;;;;11.94;82.46;99476.31;1695459;82;25748;-78
2021/09/24 05:18:27;;;;;;;18.85;3.22;;;;;;;11.96;82.59;99495.70;1721487;82;26475;-78
2021/09/24 05:20:54;;;;;;;18.50;2.98;;;;;;;12.00;82.85;99493.38;1723790;82;26452;-78
2021/09/24 05:23:21;;;;;;;15.08;2.95;;;;;;;12.03;82.98;99491.09;1692859;82;25777;-78
2021/09/24 05:25:48;;;;;;;11.78;2.08;;;;;;;12.07;82.94;99507.56;1714111;82;27625;-78
2021/09/24 05:28:15;;;;;;;16.97;4.30;;;;;;;12.08;83.09;99507.88;1709148;82;26503;-77
2021/09/24 05:30:43;;;;;;;15.32;2.87;;;;;;;12.08;82.91;99501.16;1706462;82;25861;-77
2021/09/24 05:33:10;;;;;;;15.80;3.20;;;;;;;12.08;82.87;99514.03;1688127;82;25813;-78
2021/09/24 05:35:37;;;;;;;15.53;3.08;;;;;;;12.08;82.87;99517.27;1706570;82;26593;-78
2021/09/24 05:38:04;;;;;;;15.48;3.45;;;;;;;12.08;82.99;99510.55;1711441;82;27237;-78
2021/09/24 05:40:31;;;;;;;17.32;2.60;;;;;;;12.07;82.73;99528.52;1729181;82;26682;-78
2021/09/24 05:42:58;;;;;;;16.90;2.70;;;;;;;12.07;82.82;99523.66;1684133;82;26586;-78
2021/09/24 05:45:25;;;;;;;12.33;2.58;;;;;;;12.08;82.89;99526.66;1694107;82;26156;-78
2021/09/24 05:47:52;;;;;;;16.73;3.00;;;;;;;12.08;82.76;99528.80;1715074;82;25756;-77
2021/09/24 05:50:19;;;;;;;17.55;3.00;;;;;;;12.07;82.72;99536.57;1716500;82;27619;-78
2021/09/24 05:52:50;;;;;;;13.18;2.67;;;;;;;12.08;82.88;99532.03;1691807;82;25984;-78
2021/09/24 05:55:20;;;;;;;8.70;2.30;;;;;;;12.09;82.92;99533.66;1730349;82;25908;-78
2021/09/24 05:57:49;;;;;;;17.37;3.27;;;;;;;12.09;82.92;99530.45;1712462;82;26231;-78
2021/09/24 06:00:19;;;;;;;11.48;2.58;;;;;;;12.10;82.79;99533.97;1730346;82;26563;-78
2021/09/24 06:02:48;;;;;;;11.35;2.67;;;;;;;12.10;82.72;99538.80;1686949;82;27450;-77
2021/09/24 06:05:16;;;;;;;15.45;2.62;;;;;;;12.11;82.73;99541.80;1688680;82;25859;-78
2021/09/24 06:07:44;;;;;;;12.47;3.33;;;;;;;12.12;82.78;99548.81;1718387;81;25877;-79
2021/09/24 06:10:13;;;;;;;20.35;3.52;;;;;;;12.13;82.66;99549.61;1723408;83;25784;-77
2021/09/24 06:12:40;;;;;;;19.00;3.10;;;;;;;12.16;82.39;99551.35;1671470;83;25840;-78
2021/09/24 06:15:08;;;;;;;14.03;2.80;;;;;;;12.19;82.41;99560.28;1691152;81;28268;-78
2021/09/24 06:17:35;;;;;;;16.00;3.17;;;;;;;12.25;82.38;99551.88;1675189;83;26035;-78
2021/09/24 06:20:03;;;;;;;14.53;3.37;;;;;;;12.32;82.30;99552.61;1700119;81;25742;-78
2021/09/24 06:22:30;;;;;;;13.93;2.70;;;;;;;12.35;82.22;99555.69;1680031;83;26144;-77
2021/09/24 06:24:57;;;;;;;17.52;3.20;;;;;;;12.38;81.85;99549.85;1685127;83;25866;-78
2021/09/24 06:27:24;;;;;;;19.12;3.62;;;;;;;12.43;81.71;99559.93;1717589;82;27463;-78
2021/09/24 06:29:57;;;;;;;18.02;3.70;;;;;;;12.48;81.97;99561.95;1664810;82;25818;-78
2021/09/24 06:32:24;;;;;;;23.52;4.30;;;;;;;12.53;81.84;99562.91;1695591;82;25840;-78
2021/09/24 06:34:52;;;;;;;14.60;3.25;;;;;;;12.58;81.46;99567.61;1734861;82;26637;-78
2021/09/24 06:37:19;;;;;;;19.75;3.67;;;;;;;12.61;81.29;99572.03;1734842;82;25762;-77
2021/09/24 06:39:46;;;;;;;12.05;2.90;;;;;;;12.65;81.30;99563.81;1690710;82;27521;-78
2021/09/24 06:42:13;;;;;;;16.75;3.37;;;;;;;12.70;81.04;99564.48;1708608;81;25778;-78
2021/09/24 06:44:42;;;;;;;18.12;3.22;;;;;;;12.72;80.85;99565.91;1714312;82;25772;-78
2021/09/24 06:47:09;;;;;;;12.55;2.52;;;;;;;12.80;81.09;99562.08;1734793;82;26197;-78
2021/09/24 06:49:37;;;;;;;20.10;3.30;;;;;;;12.80;80.64;99575.52;1663605;82;25865;-78
2021/09/24 06:52:05;;;;;;;15.25;3.27;;;;;;;12.79;80.60;99574.69;1685501;82;27182;-77
2021/09/24 06:54:32;;;;;;;21.37;3.35;;;;;;;12.80;80.39;99576.86;1693849;82;25872;-78
2021/09/24 06:56:59;;;;;;;18.25;2.83;;;;;;;12.80;80.28;99583.58;1734573;81;25687;-77
2021/09/24 06:59:27;;;;;;;13.15;2.80;;;;;;;12.84;80.51;99582.08;1669527;82;25765;-78
2021/09/24 07:01:54;;;;;;;14.63;2.62;;;;;;;12.87;80.43;99582.98;1690378;82;25837;-78
2021/09/24 07:04:21;;;;;;;12.78;2.90;;;;;;;12.89;80.13;99591.63;1714704;82;28728;-78
2021/09/24 07:06:48;;;;;;;13.72;3.30;;;;;;;12.88;80.26;99596.19;1685563;82;26631;-78
2021/09/24 07:09:15;;;;;;;14.15;2.42;;;;;;;12.88;79.31;99593.50;1666200;82;26373;-78
2021/09/24 07:11:48;;;;;;;15.00;3.00;;;;;;;12.89;80.10;99607.25;1714557;82;26623;-78
2021/09/24 07:14:12;;;;;;;13.48;2.92;;;;;;;12.92;79.97;99601.40;1734465;82;25779;-78
2021/09/24 07:16:39;;;;;;;16.45;2.85;;;;;;;12.97;79.98;99606.11;1734821;82;27426;-78
2021/09/24 07:19:07;;;;;;;11.40;2.47;;;;;;;13.01;80.27;99615.35;1713475;82;25849;-78
2021/09/24 07:21:34;;;;;;;13.00;2.77;;;;;;;13.07;79.92;99622.02;1712078;82;25961;-77
2021/09/24 07:24:02;;;;;;;14.73;2.60;;;;;;;13.14;79.61;99625.45;1742835;81;25934;-78
2021/09/24 07:26:30;;;;;;;12.68;3.02;;;;;;;13.23;79.00;99624.62;1734184;81;25791;-78
2021/09/24 07:28:57;;;;;;;14.73;2.80;;;;;;;13.27;79.49;99645.14;1670489;82;27564;-78
2021/09/24 07:31:25;;;;;;;13.40;2.83;;;;;;;13.30;78.02;99634.74;1718635;82;26014;-78
2021/09/24 07:33:53;;;;;;;16.30;3.20;;;;;;;13.35;78.32;99634.06;1711986;82;25871;-78
2021/09/24 07:36:21;;;;;;;11.83;2.80;;;;;;;13.44;78.51;99635.39;1734353;82;25473;-78
2021/09/24 07:38:50;;;;;;;15.53;3.05;;;;;;;13.48;78.27;99648.16;1670341;82;26532;-78
2021/09/24 07:41:20;;;;;;;16.35;3.33;;;;;;;13.52;78.16;99649.86;1718424;82;28161;-78
2021/09/24 07:43:49;;;;;;;14.63;3.20;;;;;;;13.55;77.84;99651.59;1712901;82;25998;-78
2021/09/24 07:46:17;;;;;;;14.18;2.70;;;;;;;13.54;76.95;99646.41;1734330;82;25740;-78
2021/09/24 07:48:44;;;;;;;14.68;2.55;;;;;;;13.55;77.61;99656.97;1713918;82;26495;-78
2021/09/24 07:51:13;;;;;;;17.25;3.00;;;;;;;13.60;77.68;99673.78;1719068;81;25835;-78
2021/09/24 07:53:40;;;;;;;12.30;2.92;;;;;;;13.62;77.27;99675.16;1712642;82;27478;-78
2021/09/24 07:56:09;;;;;;;13.30;2.77;;;;;;;13.62;77.29;99668.44;1734365;82;25784;-78
2021/09/24 07:58:38;;;;;;;15.00;2.62;;;;;;;13.63;77.18;99668.75;1667599;82;25811;-78
2021/09/24 08:01:08;;;;;;;13.65;3.37;;;;;;;13.65;76.48;99672.03;1694591;82;26428;-78
2021/09/24 08:03:36;;;;;;;10.98;3.30;;;;;;;13.67;77.02;99675.31;1734317;82;25916;-78
2021/09/24 08:06:03;;;;;;;10.95;2.80;;;;;;;13.72;76.89;99674.63;1714162;82;28185;-78
2021/09/24 08:08:31;;;;;;;12.53;3.00;;;;;;;13.75;77.02;99672.84;1699003;82;26200;-78
2021/09/24 08:10:59;;;;;;;9.75;2.80;;;;;;;13.83;76.93;99681.92;1692187;82;25982;-78
2021/09/24 08:13:26;;;;;;;12.60;2.47;;;;;;;13.87;76.54;99691.18;1718660;82;25772;-78
2021/09/24 08:15:55;;;;;;;14.85;3.33;;;;;;;13.90;76.55;99672.68;1730599;82;26061;-78
2021/09/24 08:18:23;;;;;;;14.13;3.05;;;;;;;13.98;76.63;99674.76;1671825;82;27337;-78
2021/09/24 08:20:51;;;;;;;11.22;2.60;;;;;;;14.01;75.30;99679.14;1718062;82;26542;-78
2021/09/24 08:23:18;;;;;;;9.58;2.67;;;;;;;14.04;75.69;99682.73;1683440;82;25815;-78
2021/09/24 08:25:45;;;;;;;10.18;2.75;;;;;;;14.10;76.18;99682.32;1734287;82;25954;-78
2021/09/24 08:28:12;;;;;;;12.60;2.67;;;;;;;14.16;76.55;99683.56;1667987;82;25973;-78
2021/09/24 08:30:39;;;;;;;10.15;2.85;;;;;;;14.18;75.56;99681.45;1718176;82;27413;-78
2021/09/24 08:33:07;;;;;;;13.50;2.87;;;;;;;14.20;76.02;99690.67;1666144;82;25853;-78
2021/09/24 08:35:35;;;;;;;12.78;2.50;;;;;;;14.24;76.15;99691.30;1734577;82;25942;-78
2021/09/24 08:38:02;;;;;;;9.70;2.52;;;;;;;14.32;74.74;99685.62;1671238;82;26293;-78
2021/09/24 08:40:33;;;;;;;14.18;3.15;;;;;;;14.39;75.03;99690.91;1662641;82;25754;-78
2021/09/24 08:43:00;;;;;;;14.68;2.90;;;;;;;14.41;74.97;99692.84;1743027;82;28160;-78
2021/09/24 08:45:30;;;;;;;9.85;2.62;;;;;;;14.40;74.49;99691.18;1734563;81;25977;-78
2021/09/24 08:48:05;;;;;;;9.30;2.52;;;;;;;14.36;74.40;99690.84;1689815;82;26463;-78
2021/09/24 08:50:36;;;;;;;13.13;3.17;;;;;;;14.40;74.20;99690.66;1734497;82;25792;-78
2021/09/24 08:53:06;;;;;;;11.75;2.80;;;;;;;14.49;73.46;99681.70;1705804;82;25918;-78
2021/09/24 08:55:33;;;;;;;12.95;2.60;;;;;;;14.57;72.54;99690.25;1734598;82;28136;-78
2021/09/24 08:58:01;;;;;;;11.60;3.00;;;;;;;14.64;73.11;99672.63;1667512;82;25780;-79
2021/09/24 09:00:30;;;;;;;12.13;2.58;;;;;;;14.66;72.17;99682.11;1691017;82;25779;-78
2021/09/24 09:03:08;;;;;;;16.10;2.75;;;;;;;14.73;71.72;99694.65;1712162;82;25941;-78
2021/09/24 09:05:43;;;;;;;9.90;2.20;;;;;;;14.79;72.33;99694.53;1732564;82;25844;-78
2021/09/24 09:08:30;;;;;;;8.55;2.30;;;;;;;14.86;72.37;99694.41;1678797;82;27651;-78
2021/09/24 09:11:01;;;;;;;11.57;2.42;;;;;;;14.91;72.22;99703.41;1698229;82;25744;-78
2021/09/24 09:13:35;;;;;;;14.75;3.17;;;;;;;14.96;72.86;99706.75;1712237;82;25909;-78
2021/09/24 09:16:11;;;;;;;8.03;2.45;;;;;;;15.06;73.11;99712.36;1730096;81;26095;-79
2021/09/24 09:18:42;;;;;;;8.68;2.58;;;;;;;15.02;71.65;99706.63;1678471;82;26792;-78
2021/09/24 09:21:14;;;;;;;10.00;2.02;;;;;;;14.99;71.21;99715.18;1719022;82;27537;-78
2021/09/24 09:23:48;;;;;;;8.13;2.50;;;;;;;14.96;71.32;99714.84;1740992;82;26346;-78
2021/09/24 09:26:17;;;;;;;9.25;3.42;;;;;;;14.96;72.02;99726.45;1733359;82;25712;-78
2021/09/24 09:28:57;;;;;;;8.40;2.12;;;;;;;15.00;70.62;99725.45;1686673;82;26245;-78
2021/09/24 09:31:29;;;;;;;7.83;2.10;;;;;;;14.98;70.76;99727.05;1719346;82;25935;-77
2021/09/24 09:34:00;;;;;;;10.82;2.52;;;;;;;15.02;70.78;99722.81;1736447;82;27624;-78
2021/09/24 09:36:36;;;;;;;;;;;;;;;15.11;70.32;99728.66;1737029;82;25709;-78
2021/09/24 09:39:13;;;;;;;10.90;2.17;;;;;;;15.11;70.67;99724.09;1713948;82;25809;-78
2021/09/24 09:41:51;;;;;;;7.42;1.90;;;;;;;15.23;71.63;99724.88;1712473;82;26495;-77
2021/09/24 09:44:31;;;;;;;10.20;2.15;;;;;;;15.38;70.60;99735.17;1733889;82;26206;-78
2021/09/24 09:46:59;;;;;;;6.75;1.77;;;;;;;15.36;68.26;99727.84;1724148;82;27449;-78
2021/09/24 09:49:29;;;;;;;6.10;1.72;;;;;;;15.40;67.83;99733.05;1665277;82;25828;-78
2021/09/24 09:52:13;;;;;;;7.10;2.08;;;;;;;15.48;69.35;99732.73;1675422;82;25798;-77
2021/09/24 09:54:41;;;;;;;6.17;1.50;;;;;;;15.57;69.60;99729.13;1734012;82;25795;-78
2021/09/24 09:57:18;;;;;;;9.18;2.20;;;;;;;15.66;68.24;99727.66;1694907;82;25773;-78
2021/09/24 09:59:50;;;;;;;4.97;1.80;;;;;;;15.73;68.31;99722.42;1706871;82;27455;-78
2021/09/24 10:02:31;;;;;;;8.73;1.67;;;;;;;15.75;66.58;99727.05;1715995;82;25617;-78
2021/09/24 10:04:59;;;;;;;6.62;1.52;;;;;;;15.76;65.97;99733.27;1734532;82;25891;-77
2021/09/24 10:07:30;;;;;;;5.17;1.30;;;;;;;15.74;66.36;99734.05;1665044;82;25864;-78
2021/09/24 10:10:15;;;;;;;7.47;1.70;;;;;;;15.76;66.13;99740.02;1681583;82;25801;-78
2021/09/24 10:12:44;;;;;;;9.43;1.70;;;;;;;15.80;66.48;99744.67;1733658;82;27330;-78
2021/09/24 10:15:14;;;;;;;6.03;1.75;;;;;;;15.74;65.53;99744.84;1734123;82;25785;-77
2021/09/24 10:17:43;;;;;;;8.18;1.62;;;;;;;15.65;65.55;99735.48;1693396;82;25765;-77
2021/09/24 10:20:12;;;;;;;11.97;1.92;;;;;;;15.62;66.21;99736.78;1675419;82;26569;-77
2021/09/24 10:22:39;;;;;;;6.85;1.60;;;;;;;15.72;65.40;99750.47;1734479;81;26110;-77
2021/09/24 10:25:07;;;;;;;11.60;2.17;;;;;;;15.77;65.92;99740.30;1719262;82;27569;-78
2021/09/24 10:27:44;;;;;;;5.20;1.45;;;;;;;15.78;65.81;99746.80;1691929;82;26545;-77
2021/09/24 10:30:14;;;;;;;6.37;1.62;;;;;;;15.90;66.32;99750.81;1737021;82;25886;-78
2021/09/24 10:33:06;;;;;;;12.05;2.20;;;;;;;15.98;66.23;99758.00;1740815;80;25800;-78
2021/09/24 10:35:55;;;;;;;9.68;1.85;;;;;;;15.95;65.72;99758.47;1740978;82;26586;-78
2021/09/24 10:38:25;;;;;;;7.15;2.02;;;;;;;15.94;65.45;99761.42;1647934;82;27617;-78
2021/09/24 10:41:07;;;;;;;7.40;1.47;;;;;;;15.93;65.48;99767.34;1695657;82;25894;-78
2021/09/24 10:43:44;;;;;;;7.97;2.10;;;;;;;15.98;65.99;99769.33;1741928;82;25735;-78
2021/09/24 10:46:35;;;;;;;9.10;1.70;;;;;;;15.99;65.63;99764.23;1745697;82;26164;-78
2021/09/24 10:49:19;;;;;;;14.90;2.10;;;;;;;15.99;65.07;99760.17;1694064;82;25337;-77
2021/09/24 10:52:08;;;;;;;9.35;1.90;;;;;;;15.95;66.07;99766.57;1747716;81;28245;-78
2021/09/24 10:54:33;;;;;;;8.03;2.02;;;;;;;15.97;65.80;99770.41;1741786;82;25804;-77
2021/09/24 10:57:06;;;;;;;10.48;2.37;;;;;;;15.99;66.07;99780.44;1745871;82;25812;-78
2021/09/24 10:59:34;;;;;;;10.55;2.35;;;;;;;15.96;65.79;99771.45;1692665;82;26129;-78
2021/09/24 11:02:22;;;;;;;9.33;2.37;;;;;;;15.98;65.41;99770.67;1699411;82;25867;-77
2021/09/24 11:04:51;;;;;;;8.23;2.08;;;;;;;15.96;66.00;99780.91;1734403;82;28238;-78
2021/09/24 11:07:31;;;;;;;12.18;3.02;;;;;;;15.93;66.10;99771.39;1723308;82;25927;-78
2021/09/24 11:09:58;;;;;;;10.65;1.98;;;;;;;15.90;65.51;99770.55;1695979;82;25733;-78
2021/09/24 11:12:25;;;;;;;11.93;2.45;;;;;;;15.88;65.02;99758.34;1700185;82;26293;-78
2021/09/24 11:15:09;;;;;;;10.48;3.98;;;;;;;15.81;65.18;99763.05;1745531;82;26515;-77
2021/09/24 11:17:46;;;;;;;8.00;2.45;;;;;;;15.83;65.38;99767.16;1743476;82;27618;-77
2021/09/24 11:20:37;;;;;;;8.38;2.05;;;;;;;15.89;66.20;99770.77;1712898;82;25948;-77
2021/09/24 11:23:35;;;;;;;5.15;1.70;;;;;;;15.90;65.90;99773.77;1685719;83;26431;-77
2021/09/24 11:26:22;;;;;;;10.20;2.15;;;;;;;15.95;65.92;99765.22;1722629;81;25812;-78
2021/09/24 11:29:06;;;;;;;8.93;1.95;;;;;;;15.98;65.30;99766.10;1740780;81;26560;-78
2021/09/24 11:32:04;;;;;;;8.80;2.00;;;;;;;16.06;64.53;99775.16;1712571;82;27571;-77
2021/09/24 11:34:39;;;;;;;10.60;1.85;;;;;;;16.17;65.10;99767.53;1698931;82;25875;-77
2021/09/24 11:37:11;;;;;;;5.40;1.50;;;;;;;16.20;64.02;99792.73;1734070;82;26401;-77